sensor_id;sensor_type;location;lat;lon;timestamp;temperature;humidity
16064;DHT22;8136;53.172;8.256;2023-02-28T00:01:22;5.50;99.90
16064;DHT22;8136;53.172;8.256;2023-02-28T00:03:49;5.50;99.90
16064;DHT22;8136;53.172;8.256;2023-02-28T00:06:16;5.50;99.90
16064;DHT22;8136;53.172;8.256;2023-02-28T00:08:43;5.50;99.90
16064;DHT22;8136;53.172;8.256;2023-02-28T00:11:12;5.50;99.90
16064;DHT22;8136;53.172;8.256;2023-02-28T00:13:41;5.50;99.90
16064;DHT22;8136;53.172;8.256;2023-02-28T00:16:11;5.50;99.90
16064;DHT22;8136;53.172;8.256;2023-02-28T00:18:39;5.50;99.90
16064;DHT22;8136;53.172;8.256;2023-02-28T00:21:06;5.50;99.90
16064;DHT22;8136;53.172;8.256;2023-02-28T00:23:34;5.50;99.90
16064;DHT22;8136;53.172;8.256;2023-02-28T00:26:01;5.50;99.90
16064;DHT22;8136;53.172;8.256;2023-02-28T00:28:28;5.40;99.90
16064;DHT22;8136;53.172;8.256;2023-02-28T00:30:55;5.40;99.90
16064;DHT22;8136;53.172;8.256;2023-02-28T00:33:24;5.40;99.90
16064;DHT22;8136;53.172;8.256;2023-02-28T00:35:51;5.30;99.90
16064;DHT22;8136;53.172;8.256;2023-02-28T00:38:18;5.40;99.90
16064;DHT22;8136;53.172;8.256;2023-02-28T00:40:45;5.40;99.90
16064;DHT22;8136;53.172;8.256;2023-02-28T00:43:12;5.40;99.90
16064;DHT22;8136;53.172;8.256;2023-02-28T00:45:41;5.40;99.90
16064;DHT22;8136;53.172;8.256;2023-02-28T00:48:08;5.30;99.90
16064;DHT22;8136;53.172;8.256;2023-02-28T00:50:36;5.40;99.90
16064;DHT22;8136;53.172;8.256;2023-02-28T00:53:03;5.40;99.90
16064;DHT22;8136;53.172;8.256;2023-02-28T00:55:30;5.40;99.90
16064;DHT22;8136;53.172;8.256;2023-02-28T00:57:57;5.40;99.90
16064;DHT22;8136;53.172;8.256;2023-02-28T01:00:24;5.30;99.90
16064;DHT22;8136;53.172;8.256;2023-02-28T01:02:50;5.30;99.90
16064;DHT22;8136;53.172;8.256;2023-02-28T01:05:17;5.40;99.90
16064;DHT22;8136;53.172;8.256;2023-02-28T01:07:45;5.40;99.90
16064;DHT22;8136;53.172;8.256;2023-02-28T01:10:12;5.40;99.90
16064;DHT22;8136;53.172;8.256;2023-02-28T01:12:39;5.40;99.90
16064;DHT22;8136;53.172;8.256;2023-02-28T01:15:06;5.40;99.90
16064;DHT22;8136;53.172;8.256;2023-02-28T01:17:36;5.30;99.90
16064;DHT22;8136;53.172;8.256;2023-02-28T01:20:03;5.40;99.90
16064;DHT22;8136;53.172;8.256;2023-02-28T01:22:30;5.40;99.90
16064;DHT22;8136;53.172;8.256;2023-02-28T01:24:58;5.40;99.90
16064;DHT22;8136;53.172;8.256;2023-02-28T01:27:25;5.40;99.90
16064;DHT22;8136;53.172;8.256;2023-02-28T01:29:52;5.40;99.90
16064;DHT22;8136;53.172;8.256;2023-02-28T01:32:19;5.40;99.90
16064;DHT22;8136;53.172;8.256;2023-02-28T01:34:46;5.40;99.90
16064;DHT22;8136;53.172;8.256;2023-02-28T01:37:13;5.40;99.90
16064;DHT22;8136;53.172;8.256;2023-02-28T01:39:40;5.30;99.90
16064;DHT22;8136;53.172;8.256;2023-02-28T01:42:09;5.30;99.90
16064;DHT22;8136;53.172;8.256;2023-02-28T01:44:58;5.30;99.90
16064;DHT22;8136;53.172;8.256;2023-02-28T01:47:28;5.30;99.90
16064;DHT22;8136;53.172;8.256;2023-02-28T01:49:55;5.20;99.90
16064;DHT22;8136;53.172;8.256;2023-02-28T01:52:23;5.30;99.90
16064;DHT22;8136;53.172;8.256;2023-02-28T01:54:53;5.20;99.90
16064;DHT22;8136;53.172;8.256;2023-02-28T01:57:40;5.20;99.90
16064;DHT22;8136;53.172;8.256;2023-02-28T02:00:11;5.20;99.90
16064;DHT22;8136;53.172;8.256;2023-02-28T02:02:42;5.20;99.90
16064;DHT22;8136;53.172;8.256;2023-02-28T02:05:11;5.10;99.90
16064;DHT22;8136;53.172;8.256;2023-02-28T02:07:40;5.10;99.90
16064;DHT22;8136;53.172;8.256;2023-02-28T02:10:12;5.20;99.90
16064;DHT22;8136;53.172;8.256;2023-02-28T02:13:00;5.20;99.90
16064;DHT22;8136;53.172;8.256;2023-02-28T02:15:33;5.20;99.90
16064;DHT22;8136;53.172;8.256;2023-02-28T02:18:06;5.20;99.90
16064;DHT22;8136;53.172;8.256;2023-02-28T02:21:05;5.10;99.90
16064;DHT22;8136;53.172;8.256;2023-02-28T02:23:58;5.20;99.90
16064;DHT22;8136;53.172;8.256;2023-02-28T02:26:58;5.10;99.90
16064;DHT22;8136;53.172;8.256;2023-02-28T02:35:49;5.00;99.90
16064;DHT22;8136;53.172;8.256;2023-02-28T02:38:22;5.10;99.90
16064;DHT22;8136;53.172;8.256;2023-02-28T02:40:59;5.00;99.90
16064;DHT22;8136;53.172;8.256;2023-02-28T02:43:35;5.00;99.90
16064;DHT22;8136;53.172;8.256;2023-02-28T02:46:10;5.00;99.90
16064;DHT22;8136;53.172;8.256;2023-02-28T02:48:42;5.00;99.90
16064;DHT22;8136;53.172;8.256;2023-02-28T02:51:14;5.00;99.90
16064;DHT22;8136;53.172;8.256;2023-02-28T02:53:46;5.00;99.90
16064;DHT22;8136;53.172;8.256;2023-02-28T02:56:18;4.90;99.90
16064;DHT22;8136;53.172;8.256;2023-02-28T02:58:47;5.00;99.90
16064;DHT22;8136;53.172;8.256;2023-02-28T03:01:21;5.00;99.90
16064;DHT22;8136;53.172;8.256;2023-02-28T03:03:54;5.00;99.90
16064;DHT22;8136;53.172;8.256;2023-02-28T03:06:23;5.00;99.90
16064;DHT22;8136;53.172;8.256;2023-02-28T03:09:02;4.90;99.90
16064;DHT22;8136;53.172;8.256;2023-02-28T03:11:30;4.90;99.90
16064;DHT22;8136;53.172;8.256;2023-02-28T03:17:27;4.90;99.90
16064;DHT22;8136;53.172;8.256;2023-02-28T03:20:04;4.90;99.90
16064;DHT22;8136;53.172;8.256;2023-02-28T03:22:50;4.90;99.90
16064;DHT22;8136;53.172;8.256;2023-02-28T03:25:27;4.80;99.90
16064;DHT22;8136;53.172;8.256;2023-02-28T03:28:02;4.80;99.90
16064;DHT22;8136;53.172;8.256;2023-02-28T03:30:36;4.90;99.90
16064;DHT22;8136;53.172;8.256;2023-02-28T03:33:11;4.90;99.90
16064;DHT22;8136;53.172;8.256;2023-02-28T03:35:42;4.90;99.90
16064;DHT22;8136;53.172;8.256;2023-02-28T03:38:15;4.80;99.90
16064;DHT22;8136;53.172;8.256;2023-02-28T03:40:48;4.80;99.90
16064;DHT22;8136;53.172;8.256;2023-02-28T03:43:23;4.70;99.90
16064;DHT22;8136;53.172;8.256;2023-02-28T03:45:52;4.70;99.90
16064;DHT22;8136;53.172;8.256;2023-02-28T03:48:31;4.70;99.90
16064;DHT22;8136;53.172;8.256;2023-02-28T03:51:02;4.70;99.90
16064;DHT22;8136;53.172;8.256;2023-02-28T03:53:34;4.70;99.90
16064;DHT22;8136;53.172;8.256;2023-02-28T03:56:11;4.70;99.90
16064;DHT22;8136;53.172;8.256;2023-02-28T03:58:44;4.70;99.90
16064;DHT22;8136;53.172;8.256;2023-02-28T04:01:19;4.70;99.90
16064;DHT22;8136;53.172;8.256;2023-02-28T04:03:50;4.80;99.90
16064;DHT22;8136;53.172;8.256;2023-02-28T04:06:21;4.80;99.90
16064;DHT22;8136;53.172;8.256;2023-02-28T04:08:50;4.80;99.90
16064;DHT22;8136;53.172;8.256;2023-02-28T04:11:30;4.80;99.90
16064;DHT22;8136;53.172;8.256;2023-02-28T04:14:08;4.70;99.90
16064;DHT22;8136;53.172;8.256;2023-02-28T04:16:40;4.70;99.90
16064;DHT22;8136;53.172;8.256;2023-02-28T04:19:08;4.70;99.90
16064;DHT22;8136;53.172;8.256;2023-02-28T04:21:37;4.60;99.90
16064;DHT22;8136;53.172;8.256;2023-02-28T04:24:07;4.60;99.90
16064;DHT22;8136;53.172;8.256;2023-02-28T04:26:36;4.60;99.90
16064;DHT22;8136;53.172;8.256;2023-02-28T04:29:04;4.60;99.90
16064;DHT22;8136;53.172;8.256;2023-02-28T04:31:34;4.60;99.90
16064;DHT22;8136;53.172;8.256;2023-02-28T04:34:03;4.60;99.90
16064;DHT22;8136;53.172;8.256;2023-02-28T04:36:30;4.70;99.90
16064;DHT22;8136;53.172;8.256;2023-02-28T04:39:00;4.70;99.90
16064;DHT22;8136;53.172;8.256;2023-02-28T04:41:30;4.70;99.90
16064;DHT22;8136;53.172;8.256;2023-02-28T04:43:56;4.60;99.90
16064;DHT22;8136;53.172;8.256;2023-02-28T04:46:26;4.60;99.90
16064;DHT22;8136;53.172;8.256;2023-02-28T04:48:56;4.60;99.90
16064;DHT22;8136;53.172;8.256;2023-02-28T04:51:23;4.60;99.90
16064;DHT22;8136;53.172;8.256;2023-02-28T04:53:50;4.60;99.90
16064;DHT22;8136;53.172;8.256;2023-02-28T04:56:17;4.60;99.90
16064;DHT22;8136;53.172;8.256;2023-02-28T04:58:49;4.60;99.90
16064;DHT22;8136;53.172;8.256;2023-02-28T05:01:23;4.50;99.90
16064;DHT22;8136;53.172;8.256;2023-02-28T05:03:51;4.50;99.90
16064;DHT22;8136;53.172;8.256;2023-02-28T05:06:19;4.50;99.90
16064;DHT22;8136;53.172;8.256;2023-02-28T05:08:47;4.60;99.90
16064;DHT22;8136;53.172;8.256;2023-02-28T05:11:19;4.60;99.90
16064;DHT22;8136;53.172;8.256;2023-02-28T05:13:48;4.60;99.90
16064;DHT22;8136;53.172;8.256;2023-02-28T05:16:16;4.60;99.90
16064;DHT22;8136;53.172;8.256;2023-02-28T05:18:43;4.60;99.90
16064;DHT22;8136;53.172;8.256;2023-02-28T05:21:27;4.50;99.90
16064;DHT22;8136;53.172;8.256;2023-02-28T05:24:06;4.50;99.90
16064;DHT22;8136;53.172;8.256;2023-02-28T05:26:35;4.50;99.90
16064;DHT22;8136;53.172;8.256;2023-02-28T05:29:10;4.40;99.90
16064;DHT22;8136;53.172;8.256;2023-02-28T05:31:42;4.50;99.90
16064;DHT22;8136;53.172;8.256;2023-02-28T05:34:09;4.40;99.90
16064;DHT22;8136;53.172;8.256;2023-02-28T05:36:40;4.30;99.90
16064;DHT22;8136;53.172;8.256;2023-02-28T05:39:07;4.30;99.90
16064;DHT22;8136;53.172;8.256;2023-02-28T05:41:43;4.30;99.90
16064;DHT22;8136;53.172;8.256;2023-02-28T05:44:15;4.20;99.90
16064;DHT22;8136;53.172;8.256;2023-02-28T05:46:45;4.10;99.90
16064;DHT22;8136;53.172;8.256;2023-02-28T05:49:14;4.00;99.90
16064;DHT22;8136;53.172;8.256;2023-02-28T05:51:44;4.00;99.90
16064;DHT22;8136;53.172;8.256;2023-02-28T05:54:10;4.00;99.90
16064;DHT22;8136;53.172;8.256;2023-02-28T05:56:38;4.00;99.90
16064;DHT22;8136;53.172;8.256;2023-02-28T05:59:08;3.90;99.90
16064;DHT22;8136;53.172;8.256;2023-02-28T06:01:41;3.90;99.90
16064;DHT22;8136;53.172;8.256;2023-02-28T06:04:11;3.80;99.90
16064;DHT22;8136;53.172;8.256;2023-02-28T06:06:39;3.90;99.90
16064;DHT22;8136;53.172;8.256;2023-02-28T06:09:10;3.90;99.90
16064;DHT22;8136;53.172;8.256;2023-02-28T06:11:44;3.90;99.90
16064;DHT22;8136;53.172;8.256;2023-02-28T06:14:15;3.90;99.90
16064;DHT22;8136;53.172;8.256;2023-02-28T06:16:43;3.90;99.90
16064;DHT22;8136;53.172;8.256;2023-02-28T06:19:11;3.90;99.90
16064;DHT22;8136;53.172;8.256;2023-02-28T06:21:38;3.90;99.90
16064;DHT22;8136;53.172;8.256;2023-02-28T06:24:12;3.90;99.90
16064;DHT22;8136;53.172;8.256;2023-02-28T06:37:01;3.90;99.90
16064;DHT22;8136;53.172;8.256;2023-02-28T06:39:38;3.90;99.90
16064;DHT22;8136;53.172;8.256;2023-02-28T06:42:06;3.90;99.90
16064;DHT22;8136;53.172;8.256;2023-02-28T06:44:33;3.90;99.90
16064;DHT22;8136;53.172;8.256;2023-02-28T06:47:01;4.00;99.90
16064;DHT22;8136;53.172;8.256;2023-02-28T06:49:55;4.00;99.90
16064;DHT22;8136;53.172;8.256;2023-02-28T06:52:25;4.00;99.90
16064;DHT22;8136;53.172;8.256;2023-02-28T06:55:42;4.00;99.90
16064;DHT22;8136;53.172;8.256;2023-02-28T06:58:12;4.00;99.90
16064;DHT22;8136;53.172;8.256;2023-02-28T07:00:49;4.00;99.90
16064;DHT22;8136;53.172;8.256;2023-02-28T07:03:17;4.00;99.90
16064;DHT22;8136;53.172;8.256;2023-02-28T07:05:46;4.00;99.90
16064;DHT22;8136;53.172;8.256;2023-02-28T07:08:12;4.00;99.90
16064;DHT22;8136;53.172;8.256;2023-02-28T07:10:39;4.00;99.90
16064;DHT22;8136;53.172;8.256;2023-02-28T07:13:07;3.90;99.90
16064;DHT22;8136;53.172;8.256;2023-02-28T07:15:34;3.90;99.90
16064;DHT22;8136;53.172;8.256;2023-02-28T07:18:01;3.80;99.90
16064;DHT22;8136;53.172;8.256;2023-02-28T07:20:29;3.90;99.90
16064;DHT22;8136;53.172;8.256;2023-02-28T07:22:57;3.90;99.90
16064;DHT22;8136;53.172;8.256;2023-02-28T07:25:25;3.90;99.90
16064;DHT22;8136;53.172;8.256;2023-02-28T07:27:52;3.90;99.90
16064;DHT22;8136;53.172;8.256;2023-02-28T07:30:19;4.00;99.90
16064;DHT22;8136;53.172;8.256;2023-02-28T07:32:46;4.00;99.90
16064;DHT22;8136;53.172;8.256;2023-02-28T07:35:13;4.00;99.90
16064;DHT22;8136;53.172;8.256;2023-02-28T07:37:40;4.00;99.90
16064;DHT22;8136;53.172;8.256;2023-02-28T07:40:11;4.00;99.90
16064;DHT22;8136;53.172;8.256;2023-02-28T07:42:38;4.00;99.90
16064;DHT22;8136;53.172;8.256;2023-02-28T07:45:05;4.10;99.90
16064;DHT22;8136;53.172;8.256;2023-02-28T07:47:32;4.10;99.90
16064;DHT22;8136;53.172;8.256;2023-02-28T07:49:59;4.10;99.90
16064;DHT22;8136;53.172;8.256;2023-02-28T07:52:26;4.10;99.90
16064;DHT22;8136;53.172;8.256;2023-02-28T07:54:53;4.20;99.90
16064;DHT22;8136;53.172;8.256;2023-02-28T07:57:21;4.20;99.90
16064;DHT22;8136;53.172;8.256;2023-02-28T07:59:48;4.30;99.90
16064;DHT22;8136;53.172;8.256;2023-02-28T08:02:15;4.30;99.90
16064;DHT22;8136;53.172;8.256;2023-02-28T08:04:42;4.40;99.90
16064;DHT22;8136;53.172;8.256;2023-02-28T08:07:09;4.50;99.90
16064;DHT22;8136;53.172;8.256;2023-02-28T08:09:39;4.50;99.90
16064;DHT22;8136;53.172;8.256;2023-02-28T08:12:06;4.60;99.90
16064;DHT22;8136;53.172;8.256;2023-02-28T08:14:34;4.70;99.90
16064;DHT22;8136;53.172;8.256;2023-02-28T08:17:01;4.70;99.90
16064;DHT22;8136;53.172;8.256;2023-02-28T08:19:28;4.70;99.90
16064;DHT22;8136;53.172;8.256;2023-02-28T08:21:56;4.70;99.90
16064;DHT22;8136;53.172;8.256;2023-02-28T08:24:24;4.70;99.90
16064;DHT22;8136;53.172;8.256;2023-02-28T08:26:50;4.80;99.90
16064;DHT22;8136;53.172;8.256;2023-02-28T08:29:17;4.80;99.90
16064;DHT22;8136;53.172;8.256;2023-02-28T08:31:45;4.90;99.90
16064;DHT22;8136;53.172;8.256;2023-02-28T08:34:14;5.00;99.90
16064;DHT22;8136;53.172;8.256;2023-02-28T08:36:41;5.00;99.90
16064;DHT22;8136;53.172;8.256;2023-02-28T08:39:09;4.90;99.90
16064;DHT22;8136;53.172;8.256;2023-02-28T08:41:36;5.00;99.90
16064;DHT22;8136;53.172;8.256;2023-02-28T08:44:03;5.00;99.90
16064;DHT22;8136;53.172;8.256;2023-02-28T08:46:30;5.10;99.90
16064;DHT22;8136;53.172;8.256;2023-02-28T08:48:58;5.10;99.90
16064;DHT22;8136;53.172;8.256;2023-02-28T08:51:27;5.10;99.90
16064;DHT22;8136;53.172;8.256;2023-02-28T08:53:55;5.20;99.90
16064;DHT22;8136;53.172;8.256;2023-02-28T08:56:22;5.30;99.90
16064;DHT22;8136;53.172;8.256;2023-02-28T08:58:49;5.30;99.90
16064;DHT22;8136;53.172;8.256;2023-02-28T09:01:18;5.40;99.90
16064;DHT22;8136;53.172;8.256;2023-02-28T09:03:47;5.50;99.90
16064;DHT22;8136;53.172;8.256;2023-02-28T09:06:17;5.50;99.90
16064;DHT22;8136;53.172;8.256;2023-02-28T09:08:44;5.60;99.90
16064;DHT22;8136;53.172;8.256;2023-02-28T09:11:11;5.70;99.90
16064;DHT22;8136;53.172;8.256;2023-02-28T09:13:39;5.60;99.90
16064;DHT22;8136;53.172;8.256;2023-02-28T09:16:07;5.70;99.90
16064;DHT22;8136;53.172;8.256;2023-02-28T09:18:35;5.80;99.90
16064;DHT22;8136;53.172;8.256;2023-02-28T09:21:03;6.00;99.90
16064;DHT22;8136;53.172;8.256;2023-02-28T09:23:31;6.00;99.90
16064;DHT22;8136;53.172;8.256;2023-02-28T09:25:58;6.10;99.90
16064;DHT22;8136;53.172;8.256;2023-02-28T09:28:25;6.20;99.90
16064;DHT22;8136;53.172;8.256;2023-02-28T09:30:53;6.20;99.90
16064;DHT22;8136;53.172;8.256;2023-02-28T09:33:21;6.20;99.90
16064;DHT22;8136;53.172;8.256;2023-02-28T09:35:48;6.30;99.90
16064;DHT22;8136;53.172;8.256;2023-02-28T09:38:16;6.30;99.90
16064;DHT22;8136;53.172;8.256;2023-02-28T09:40:50;6.40;99.90
16064;DHT22;8136;53.172;8.256;2023-02-28T09:43:18;6.50;99.90
16064;DHT22;8136;53.172;8.256;2023-02-28T09:45:49;6.60;99.90
16064;DHT22;8136;53.172;8.256;2023-02-28T09:48:20;6.70;99.90
16064;DHT22;8136;53.172;8.256;2023-02-28T09:50:50;6.70;99.90
16064;DHT22;8136;53.172;8.256;2023-02-28T09:53:21;6.80;99.90
16064;DHT22;8136;53.172;8.256;2023-02-28T09:55:52;7.00;99.90
16064;DHT22;8136;53.172;8.256;2023-02-28T09:58:26;7.10;99.90
16064;DHT22;8136;53.172;8.256;2023-02-28T10:00:58;7.20;99.90
16064;DHT22;8136;53.172;8.256;2023-02-28T10:03:30;7.20;99.90
16064;DHT22;8136;53.172;8.256;2023-02-28T10:06:02;7.30;99.90
16064;DHT22;8136;53.172;8.256;2023-02-28T10:08:33;7.40;99.90
16064;DHT22;8136;53.172;8.256;2023-02-28T10:11:11;7.40;99.90
16064;DHT22;8136;53.172;8.256;2023-02-28T10:13:48;7.40;99.90
16064;DHT22;8136;53.172;8.256;2023-02-28T10:16:22;7.50;99.90
16064;DHT22;8136;53.172;8.256;2023-02-28T10:18:54;7.70;99.90
16064;DHT22;8136;53.172;8.256;2023-02-28T10:21:26;7.90;99.90
16064;DHT22;8136;53.172;8.256;2023-02-28T10:24:01;8.00;99.90
16064;DHT22;8136;53.172;8.256;2023-02-28T10:26:32;8.20;99.90
16064;DHT22;8136;53.172;8.256;2023-02-28T10:28:59;8.30;99.90
16064;DHT22;8136;53.172;8.256;2023-02-28T10:31:26;8.20;99.90
16064;DHT22;8136;53.172;8.256;2023-02-28T10:33:53;8.20;99.90
16064;DHT22;8136;53.172;8.256;2023-02-28T10:36:21;8.30;99.90
16064;DHT22;8136;53.172;8.256;2023-02-28T10:38:48;8.20;99.90
16064;DHT22;8136;53.172;8.256;2023-02-28T10:41:26;8.30;99.90
16064;DHT22;8136;53.172;8.256;2023-02-28T10:44:13;8.40;99.90
16064;DHT22;8136;53.172;8.256;2023-02-28T10:46:41;8.50;99.90
16064;DHT22;8136;53.172;8.256;2023-02-28T10:49:14;8.70;99.90
16064;DHT22;8136;53.172;8.256;2023-02-28T10:51:41;8.80;99.90
16064;DHT22;8136;53.172;8.256;2023-02-28T10:54:16;9.00;99.90
16064;DHT22;8136;53.172;8.256;2023-02-28T10:56:43;9.20;99.90
16064;DHT22;8136;53.172;8.256;2023-02-28T10:59:27;9.30;99.90
16064;DHT22;8136;53.172;8.256;2023-02-28T11:01:55;9.50;99.90
16064;DHT22;8136;53.172;8.256;2023-02-28T11:04:33;9.70;99.90
16064;DHT22;8136;53.172;8.256;2023-02-28T11:07:03;9.80;99.90
16064;DHT22;8136;53.172;8.256;2023-02-28T11:09:32;10.00;99.90
16064;DHT22;8136;53.172;8.256;2023-02-28T11:12:01;10.00;99.90
16064;DHT22;8136;53.172;8.256;2023-02-28T11:14:32;10.00;99.90
16064;DHT22;8136;53.172;8.256;2023-02-28T11:17:12;10.00;99.90
16064;DHT22;8136;53.172;8.256;2023-02-28T11:19:44;10.10;99.90
16064;DHT22;8136;53.172;8.256;2023-02-28T11:22:18;10.20;99.90
16064;DHT22;8136;53.172;8.256;2023-02-28T11:24:47;10.20;99.90
16064;DHT22;8136;53.172;8.256;2023-02-28T11:27:40;10.20;99.90
16064;DHT22;8136;53.172;8.256;2023-02-28T11:30:26;10.10;99.90
16064;DHT22;8136;53.172;8.256;2023-02-28T11:32:53;10.10;99.90
16064;DHT22;8136;53.172;8.256;2023-02-28T11:35:25;10.30;99.90
16064;DHT22;8136;53.172;8.256;2023-02-28T11:37:52;10.20;98.50
16064;DHT22;8136;53.172;8.256;2023-02-28T11:40:24;10.10;98.00
16064;DHT22;8136;53.172;8.256;2023-02-28T11:43:01;10.10;99.40
16064;DHT22;8136;53.172;8.256;2023-02-28T11:45:43;10.20;98.20
16064;DHT22;8136;53.172;8.256;2023-02-28T11:48:16;10.20;98.10
16064;DHT22;8136;53.172;8.256;2023-02-28T11:50:57;10.50;98.30
16064;DHT22;8136;53.172;8.256;2023-02-28T11:53:40;10.60;97.90
16064;DHT22;8136;53.172;8.256;2023-02-28T11:56:14;10.80;98.40
16064;DHT22;8136;53.172;8.256;2023-02-28T11:58:52;10.70;97.90
16064;DHT22;8136;53.172;8.256;2023-02-28T12:01:30;10.80;97.50
16064;DHT22;8136;53.172;8.256;2023-02-28T12:04:13;10.80;97.40
16064;DHT22;8136;53.172;8.256;2023-02-28T12:06:47;10.70;97.60
16064;DHT22;8136;53.172;8.256;2023-02-28T12:09:32;10.60;97.30
16064;DHT22;8136;53.172;8.256;2023-02-28T12:12:07;10.60;98.00
16064;DHT22;8136;53.172;8.256;2023-02-28T12:17:50;10.40;97.30
16064;DHT22;8136;53.172;8.256;2023-02-28T12:20:27;10.60;97.30
16064;DHT22;8136;53.172;8.256;2023-02-28T12:23:06;10.70;96.20
16064;DHT22;8136;53.172;8.256;2023-02-28T12:26:00;10.40;96.20
16064;DHT22;8136;53.172;8.256;2023-02-28T12:28:34;10.20;97.70
16064;DHT22;8136;53.172;8.256;2023-02-28T12:31:06;10.10;97.80
16064;DHT22;8136;53.172;8.256;2023-02-28T12:33:39;10.30;98.00
16064;DHT22;8136;53.172;8.256;2023-02-28T12:36:11;10.70;96.40
16064;DHT22;8136;53.172;8.256;2023-02-28T12:38:45;10.80;95.50
16064;DHT22;8136;53.172;8.256;2023-02-28T12:41:15;10.90;95.50
16064;DHT22;8136;53.172;8.256;2023-02-28T12:43:45;10.90;96.10
16064;DHT22;8136;53.172;8.256;2023-02-28T12:46:15;10.70;95.90
16064;DHT22;8136;53.172;8.256;2023-02-28T12:48:48;10.50;96.00
16064;DHT22;8136;53.172;8.256;2023-02-28T12:51:17;10.50;96.80
16064;DHT22;8136;53.172;8.256;2023-02-28T12:53:54;10.80;97.30
16064;DHT22;8136;53.172;8.256;2023-02-28T12:56:30;11.20;95.90
16064;DHT22;8136;53.172;8.256;2023-02-28T12:59:03;11.40;97.00
16064;DHT22;8136;53.172;8.256;2023-02-28T13:01:46;11.60;96.50
16064;DHT22;8136;53.172;8.256;2023-02-28T13:10:18;12.00;94.30
16064;DHT22;8136;53.172;8.256;2023-02-28T13:12:49;12.00;94.40
16064;DHT22;8136;53.172;8.256;2023-02-28T13:15:19;12.10;94.10
16064;DHT22;8136;53.172;8.256;2023-02-28T13:17:51;12.10;94.00
16064;DHT22;8136;53.172;8.256;2023-02-28T13:20:21;12.20;92.10
16064;DHT22;8136;53.172;8.256;2023-02-28T13:22:50;12.10;92.40
16064;DHT22;8136;53.172;8.256;2023-02-28T13:25:51;12.20;93.40
16064;DHT22;8136;53.172;8.256;2023-02-28T13:31:31;12.50;93.50
16064;DHT22;8136;53.172;8.256;2023-02-28T13:34:15;12.60;91.90
16064;DHT22;8136;53.172;8.256;2023-02-28T13:36:43;12.70;91.70
16064;DHT22;8136;53.172;8.256;2023-02-28T13:42:24;12.80;90.60
16064;DHT22;8136;53.172;8.256;2023-02-28T13:45:25;13.00;90.60
16064;DHT22;8136;53.172;8.256;2023-02-28T13:47:54;13.00;90.60
16064;DHT22;8136;53.172;8.256;2023-02-28T13:50:24;13.10;90.80
16064;DHT22;8136;53.172;8.256;2023-02-28T13:53:20;13.30;90.80
16064;DHT22;8136;53.172;8.256;2023-02-28T13:55:59;13.50;90.60
16064;DHT22;8136;53.172;8.256;2023-02-28T13:58:41;13.60;88.90
16064;DHT22;8136;53.172;8.256;2023-02-28T14:04:40;14.30;90.00
16064;DHT22;8136;53.172;8.256;2023-02-28T14:07:18;15.00;90.30
16064;DHT22;8136;53.172;8.256;2023-02-28T14:09:53;15.80;89.70
16064;DHT22;8136;53.172;8.256;2023-02-28T14:13:00;16.50;87.00
16064;DHT22;8136;53.172;8.256;2023-02-28T14:15:43;17.40;85.80
16064;DHT22;8136;53.172;8.256;2023-02-28T14:21:11;19.40;78.80
16064;DHT22;8136;53.172;8.256;2023-02-28T14:26:55;20.80;72.40
16064;DHT22;8136;53.172;8.256;2023-02-28T14:29:38;21.10;69.30
16064;DHT22;8136;53.172;8.256;2023-02-28T14:32:14;21.60;68.80
16064;DHT22;8136;53.172;8.256;2023-02-28T14:34:50;22.00;68.10
16064;DHT22;8136;53.172;8.256;2023-02-28T14:37:22;22.50;68.10
16064;DHT22;8136;53.172;8.256;2023-02-28T14:39:51;22.80;66.30
16064;DHT22;8136;53.172;8.256;2023-02-28T14:42:33;22.60;61.80
16064;DHT22;8136;53.172;8.256;2023-02-28T14:45:01;22.10;60.00
16064;DHT22;8136;53.172;8.256;2023-02-28T14:47:31;22.40;61.40
16064;DHT22;8136;53.172;8.256;2023-02-28T14:49:59;22.80;62.50
16064;DHT22;8136;53.172;8.256;2023-02-28T14:52:28;23.00;59.80
16064;DHT22;8136;53.172;8.256;2023-02-28T14:54:57;23.30;61.60
16064;DHT22;8136;53.172;8.256;2023-02-28T14:57:26;23.50;58.80
16064;DHT22;8136;53.172;8.256;2023-02-28T15:00:01;23.70;59.40
16064;DHT22;8136;53.172;8.256;2023-02-28T15:02:31;23.50;57.50
16064;DHT22;8136;53.172;8.256;2023-02-28T15:05:10;23.80;58.20
16064;DHT22;8136;53.172;8.256;2023-02-28T15:07:43;24.20;59.30
16064;DHT22;8136;53.172;8.256;2023-02-28T15:10:16;24.40;58.40
16064;DHT22;8136;53.172;8.256;2023-02-28T15:12:48;24.40;57.40
16064;DHT22;8136;53.172;8.256;2023-02-28T15:15:18;24.30;56.80
16064;DHT22;8136;53.172;8.256;2023-02-28T15:17:49;24.40;55.90
16064;DHT22;8136;53.172;8.256;2023-02-28T15:20:17;24.10;56.30
16064;DHT22;8136;53.172;8.256;2023-02-28T15:22:46;24.10;55.50
16064;DHT22;8136;53.172;8.256;2023-02-28T15:25:17;23.80;55.90
16064;DHT22;8136;53.172;8.256;2023-02-28T15:27:47;23.70;55.50
16064;DHT22;8136;53.172;8.256;2023-02-28T15:30:19;23.30;55.60
16064;DHT22;8136;53.172;8.256;2023-02-28T15:33:02;23.00;55.90
16064;DHT22;8136;53.172;8.256;2023-02-28T15:35:31;23.00;56.70
16064;DHT22;8136;53.172;8.256;2023-02-28T15:38:01;23.10;56.50
16064;DHT22;8136;53.172;8.256;2023-02-28T15:40:30;23.30;56.30
16064;DHT22;8136;53.172;8.256;2023-02-28T15:42:59;23.50;56.00
16064;DHT22;8136;53.172;8.256;2023-02-28T15:45:36;23.00;56.60
16064;DHT22;8136;53.172;8.256;2023-02-28T15:48:09;23.00;57.00
16064;DHT22;8136;53.172;8.256;2023-02-28T15:50:39;22.80;57.10
16064;DHT22;8136;53.172;8.256;2023-02-28T15:53:13;22.60;56.10
16064;DHT22;8136;53.172;8.256;2023-02-28T15:55:40;22.10;56.60
16064;DHT22;8136;53.172;8.256;2023-02-28T15:58:11;22.20;57.40
16064;DHT22;8136;53.172;8.256;2023-02-28T16:00:43;22.10;56.70
16064;DHT22;8136;53.172;8.256;2023-02-28T16:03:25;22.30;56.60
16064;DHT22;8136;53.172;8.256;2023-02-28T16:09:10;21.80;56.20
16064;DHT22;8136;53.172;8.256;2023-02-28T16:11:39;21.40;55.60
16064;DHT22;8136;53.172;8.256;2023-02-28T16:14:16;21.30;56.40
16064;DHT22;8136;53.172;8.256;2023-02-28T16:16:46;21.10;56.80
16064;DHT22;8136;53.172;8.256;2023-02-28T16:19:14;21.10;55.40
16064;DHT22;8136;53.172;8.256;2023-02-28T16:21:41;20.90;55.60
16064;DHT22;8136;53.172;8.256;2023-02-28T16:24:08;20.40;56.90
16064;DHT22;8136;53.172;8.256;2023-02-28T16:26:35;20.20;57.50
16064;DHT22;8136;53.172;8.256;2023-02-28T16:29:03;20.30;58.10
16064;DHT22;8136;53.172;8.256;2023-02-28T16:31:31;20.00;57.60
16064;DHT22;8136;53.172;8.256;2023-02-28T16:34:02;19.80;58.60
16064;DHT22;8136;53.172;8.256;2023-02-28T16:36:29;19.40;58.60
16064;DHT22;8136;53.172;8.256;2023-02-28T16:38:56;18.90;58.70
16064;DHT22;8136;53.172;8.256;2023-02-28T16:41:25;18.30;58.60
16064;DHT22;8136;53.172;8.256;2023-02-28T16:43:54;17.50;60.10
16064;DHT22;8136;53.172;8.256;2023-02-28T16:46:24;16.70;61.80
16064;DHT22;8136;53.172;8.256;2023-02-28T16:48:51;15.90;63.40
16064;DHT22;8136;53.172;8.256;2023-02-28T16:51:19;15.30;63.90
16064;DHT22;8136;53.172;8.256;2023-02-28T16:53:46;14.60;65.50
16064;DHT22;8136;53.172;8.256;2023-02-28T16:56:16;14.00;66.80
16064;DHT22;8136;53.172;8.256;2023-02-28T16:58:43;13.40;68.70
16064;DHT22;8136;53.172;8.256;2023-02-28T17:01:11;12.80;70.60
16064;DHT22;8136;53.172;8.256;2023-02-28T17:03:38;12.30;71.20
16064;DHT22;8136;53.172;8.256;2023-02-28T17:06:08;11.80;73.40
16064;DHT22;8136;53.172;8.256;2023-02-28T17:08:39;11.30;74.20
16064;DHT22;8136;53.172;8.256;2023-02-28T17:11:07;10.90;74.90
16064;DHT22;8136;53.172;8.256;2023-02-28T17:13:34;10.80;75.40